createdAt,value
2023-03-30T00:00:41.323Z,9.94
2023-03-30T00:01:41.317Z,9.81
2023-03-30T00:02:41.381Z,9.67
2023-03-30T00:03:41.398Z,9.50
2023-03-30T00:04:41.336Z,9.53
2023-03-30T00:05:41.267Z,9.52
2023-03-30T00:06:41.272Z,9.61
2023-03-30T00:07:41.255Z,9.61
2023-03-30T00:08:41.240Z,9.61
2023-03-30T00:09:41.227Z,9.58
2023-03-30T00:10:41.228Z,9.49
2023-03-30T00:11:41.227Z,9.53
2023-03-30T00:12:41.219Z,9.53
2023-03-30T00:13:41.182Z,9.53
2023-03-30T00:14:41.186Z,9.53
2023-03-30T00:15:41.210Z,9.53
2023-03-30T00:16:41.207Z,9.57
2023-03-30T00:17:41.169Z,9.57
2023-03-30T00:18:41.161Z,9.43
2023-03-30T00:19:41.154Z,9.45
2023-03-30T00:20:41.134Z,9.35
2023-03-30T00:21:41.121Z,9.43
2023-03-30T00:22:41.103Z,9.42
2023-03-30T00:23:41.090Z,9.45
2023-03-30T00:24:41.086Z,9.39
2023-03-30T00:25:41.077Z,9.42
2023-03-30T00:26:41.072Z,9.43
2023-03-30T00:27:41.048Z,9.45
2023-03-30T00:28:41.059Z,9.52
2023-03-30T00:29:41.031Z,9.50
2023-03-30T00:30:41.028Z,9.39
2023-03-30T00:31:41.060Z,9.43
2023-03-30T00:32:41.027Z,9.60
2023-03-30T00:33:46.355Z,9.52
2023-03-30T00:34:41.980Z,9.49
2023-03-30T00:35:41.006Z,9.45
2023-03-30T00:36:40.981Z,9.46
2023-03-30T00:37:40.961Z,9.53
2023-03-30T00:38:41.024Z,9.56
2023-03-30T00:39:40.931Z,9.56
2023-03-30T00:40:40.965Z,9.56
2023-03-30T00:41:40.942Z,9.60
2023-03-30T00:42:40.905Z,9.43
2023-03-30T00:43:40.902Z,9.53
2023-03-30T00:44:40.887Z,9.43
2023-03-30T00:45:40.904Z,9.43
2023-03-30T00:46:42.040Z,9.46
2023-03-30T00:47:42.057Z,9.40
2023-03-30T00:48:42.019Z,9.49
2023-03-30T00:49:42.001Z,9.45
2023-03-30T00:50:41.987Z,9.43
2023-03-30T00:51:41.994Z,9.45
2023-03-30T00:52:41.980Z,9.42
2023-03-30T00:53:41.998Z,9.40
2023-03-30T00:54:41.965Z,9.38
2023-03-30T00:55:41.978Z,9.38
2023-03-30T00:56:41.987Z,9.34
2023-03-30T00:57:41.933Z,9.32
2023-03-30T00:58:41.949Z,9.28
2023-03-30T00:59:41.936Z,9.34
2023-03-30T01:00:41.913Z,9.25
2023-03-30T01:01:42.032Z,9.39
2023-03-30T01:02:41.961Z,9.34
2023-03-30T01:03:41.945Z,9.34
2023-03-30T01:04:41.873Z,9.31
2023-03-30T01:05:41.883Z,9.32
2023-03-30T01:06:41.894Z,9.43
2023-03-30T01:07:41.883Z,9.32
2023-03-30T01:08:41.821Z,9.34
2023-03-30T01:09:41.821Z,9.23
2023-03-30T01:10:41.814Z,9.25
2023-03-30T01:11:41.787Z,9.23
2023-03-30T01:12:41.828Z,9.24
2023-03-30T01:13:41.771Z,9.12
2023-03-30T01:14:41.781Z,9.05
2023-03-30T01:15:41.855Z,8.96
2023-03-30T01:16:41.779Z,8.94
2023-03-30T01:17:41.755Z,8.97
2023-03-30T01:18:41.712Z,8.91
2023-03-30T01:19:41.736Z,8.88
2023-03-30T01:20:41.737Z,8.90
2023-03-30T01:21:41.711Z,8.97
2023-03-30T01:22:41.735Z,8.93
2023-03-30T01:23:41.671Z,8.86
2023-03-30T01:24:41.673Z,8.93
2023-03-30T01:25:41.693Z,8.91
2023-03-30T01:26:41.661Z,8.90
2023-03-30T01:27:41.646Z,8.91
2023-03-30T01:28:41.627Z,8.91
2023-03-30T01:29:41.609Z,8.87
2023-03-30T01:30:41.619Z,8.97
2023-03-30T01:31:41.712Z,8.88
2023-03-30T01:32:41.660Z,8.96
2023-03-30T01:33:41.577Z,8.97
2023-03-30T01:34:41.587Z,8.94
2023-03-30T01:35:41.664Z,8.91
2023-03-30T01:36:41.613Z,9.05
2023-03-30T01:37:41.576Z,8.96
2023-03-30T01:38:41.522Z,8.93
2023-03-30T01:39:41.525Z,8.93
2023-03-30T01:40:41.492Z,8.99
2023-03-30T01:41:41.536Z,8.96
2023-03-30T01:42:41.512Z,8.91
2023-03-30T01:43:41.491Z,8.90
2023-03-30T01:44:41.497Z,8.94
2023-03-30T01:45:41.487Z,9.01
2023-03-30T01:46:41.531Z,8.99
2023-03-30T01:47:41.490Z,8.94
2023-03-30T01:48:41.427Z,8.90
2023-03-30T01:49:41.442Z,8.96
2023-03-30T01:50:41.413Z,8.91
2023-03-30T01:51:41.404Z,8.93
2023-03-30T01:52:41.465Z,8.99
2023-03-30T01:53:41.415Z,9.06
2023-03-30T01:54:41.376Z,8.83
2023-03-30T01:55:41.354Z,8.81
2023-03-30T01:56:41.402Z,8.69
2023-03-30T01:57:41.355Z,8.62
2023-03-30T01:58:41.348Z,8.65
2023-03-30T01:59:41.339Z,8.54
2023-03-30T02:00:41.318Z,8.37
2023-03-30T02:01:41.397Z,8.36
2023-03-30T02:02:41.350Z,8.39
2023-03-30T02:03:41.328Z,8.30
2023-03-30T02:04:41.280Z,8.33
2023-03-30T02:05:41.238Z,8.32
2023-03-30T02:06:41.259Z,8.21
2023-03-30T02:07:41.255Z,8.29
2023-03-30T02:08:41.240Z,8.25
2023-03-30T02:09:41.255Z,8.33
2023-03-30T02:10:41.228Z,8.33
2023-03-30T02:11:41.220Z,8.28
2023-03-30T02:12:41.189Z,8.26
2023-03-30T02:13:41.186Z,8.15
2023-03-30T02:14:41.175Z,8.17
2023-03-30T02:15:41.164Z,8.17
2023-03-30T02:16:41.238Z,8.11
2023-03-30T02:17:41.165Z,8.20
2023-03-30T02:18:41.115Z,8.14
2023-03-30T02:19:41.122Z,8.22
2023-03-30T02:20:41.122Z,8.08
2023-03-30T02:21:41.113Z,8.11
2023-03-30T02:22:41.094Z,8.25
2023-03-30T02:23:41.079Z,8.08
2023-03-30T02:24:41.076Z,7.82
2023-03-30T02:25:41.081Z,7.72
2023-03-30T02:26:41.040Z,7.49
2023-03-30T02:27:41.082Z,7.59
2023-03-30T02:28:41.098Z,7.59
2023-03-30T02:29:41.006Z,7.53
2023-03-30T02:30:41.010Z,7.59
2023-03-30T02:31:41.074Z,7.63
2023-03-30T02:32:41.031Z,7.77
2023-03-30T02:33:40.988Z,7.75
2023-03-30T02:34:40.974Z,7.79
2023-03-30T02:35:40.935Z,7.77
2023-03-30T02:36:40.953Z,7.60
2023-03-30T02:37:40.968Z,7.47
2023-03-30T02:38:40.928Z,7.53
2023-03-30T02:39:40.948Z,7.60
2023-03-30T02:40:40.915Z,7.63
2023-03-30T02:41:40.884Z,7.59
2023-03-30T02:42:40.918Z,7.60
2023-03-30T02:43:40.914Z,7.66
2023-03-30T02:44:40.887Z,7.77
2023-03-30T02:45:40.881Z,7.67
2023-03-30T02:46:40.849Z,7.75
2023-03-30T02:47:40.923Z,7.79
2023-03-30T02:48:40.826Z,7.78
2023-03-30T02:49:40.813Z,7.81
2023-03-30T02:50:40.814Z,7.96
2023-03-30T02:51:40.813Z,7.92
2023-03-30T02:52:40.840Z,7.97
2023-03-30T02:53:40.770Z,7.94
2023-03-30T02:54:40.777Z,8.00
2023-03-30T02:55:40.734Z,7.99
2023-03-30T02:56:40.801Z,8.17
2023-03-30T02:57:40.756Z,8.14
2023-03-30T02:58:40.736Z,8.10
2023-03-30T02:59:40.700Z,8.22
2023-03-30T03:00:40.690Z,8.10
2023-03-30T03:01:40.759Z,8.22
2023-03-30T03:02:40.768Z,8.14
2023-03-30T03:03:40.726Z,8.25
2023-03-30T03:04:40.644Z,8.39
2023-03-30T03:05:40.650Z,8.36
2023-03-30T03:06:40.669Z,8.37
2023-03-30T03:07:40.641Z,8.37
2023-03-30T03:08:40.623Z,8.40
2023-03-30T03:09:40.651Z,8.36
2023-03-30T03:10:40.663Z,8.36
2023-03-30T03:11:40.609Z,8.51
2023-03-30T03:12:40.591Z,8.36
2023-03-30T03:13:40.574Z,8.33
2023-03-30T03:14:40.568Z,8.47
2023-03-30T03:15:40.542Z,8.45
2023-03-30T03:16:40.625Z,8.51
2023-03-30T03:17:40.559Z,8.57
2023-03-30T03:18:41.619Z,8.54
2023-03-30T03:19:40.543Z,8.53
2023-03-30T03:20:40.503Z,8.58
2023-03-30T03:21:40.529Z,8.63
2023-03-30T03:22:40.516Z,8.58
2023-03-30T03:23:40.502Z,8.65
2023-03-30T03:24:40.447Z,8.65
2023-03-30T03:25:40.469Z,8.63
2023-03-30T03:26:40.444Z,8.73
2023-03-30T03:27:40.422Z,8.72
2023-03-30T03:28:40.453Z,8.73
2023-03-30T03:29:40.423Z,8.72
2023-03-30T03:30:40.482Z,8.83
2023-03-30T03:31:40.415Z,8.88
2023-03-30T03:32:40.396Z,8.87
2023-03-30T03:33:40.422Z,8.88
2023-03-30T03:34:40.399Z,8.93
2023-03-30T03:35:40.441Z,8.87
2023-03-30T03:36:40.392Z,9.09
2023-03-30T03:37:40.347Z,9.10
2023-03-30T03:38:40.373Z,9.09
2023-03-30T03:39:40.345Z,9.16
2023-03-30T03:40:40.321Z,9.38
2023-03-30T03:41:40.337Z,9.38
2023-03-30T03:42:40.293Z,9.48
2023-03-30T03:43:40.297Z,9.48
2023-03-30T03:44:40.268Z,9.50
2023-03-30T03:45:40.310Z,9.49
2023-03-30T03:46:40.259Z,9.52
2023-03-30T03:47:40.256Z,9.49
2023-03-30T03:48:40.278Z,9.56
2023-03-30T03:49:40.224Z,9.63
2023-03-30T03:50:40.198Z,9.60
2023-03-30T03:51:40.215Z,9.70
2023-03-30T03:52:40.180Z,9.64
2023-03-30T03:53:40.227Z,9.73
2023-03-30T03:54:40.168Z,9.75
2023-03-30T03:55:40.181Z,9.81
2023-03-30T03:56:40.173Z,9.86
2023-03-30T03:57:40.137Z,9.82
2023-03-30T03:58:40.133Z,9.97
2023-03-30T03:59:40.144Z,10.03
2023-03-30T04:00:40.259Z,10.18
2023-03-30T04:01:40.152Z,10.19
2023-03-30T04:02:40.264Z,10.46
2023-03-30T04:03:40.084Z,10.66
2023-03-30T04:04:40.143Z,10.76
2023-03-30T04:05:40.071Z,10.83
2023-03-30T04:06:40.066Z,10.88
2023-03-30T04:07:40.043Z,10.95
2023-03-30T04:08:40.036Z,11.10
2023-03-30T04:09:40.032Z,11.09
2023-03-30T04:10:40.017Z,11.03
2023-03-30T04:11:40.022Z,11.10
2023-03-30T04:12:39.997Z,11.10
2023-03-30T04:13:39.998Z,10.98
2023-03-30T04:14:40.013Z,10.92
2023-03-30T04:15:39.986Z,10.88
2023-03-30T04:16:40.040Z,10.96
2023-03-30T04:17:39.974Z,11.02
2023-03-30T04:18:39.935Z,11.14
2023-03-30T04:19:39.957Z,11.25
2023-03-30T04:20:39.956Z,11.24
2023-03-30T04:21:39.877Z,11.21
2023-03-30T04:22:39.877Z,11.27
2023-03-30T04:23:39.895Z,11.13
2023-03-30T04:24:39.878Z,11.11
2023-03-30T04:25:39.893Z,11.21
2023-03-30T04:26:39.903Z,11.25
2023-03-30T04:27:39.842Z,11.25
2023-03-30T04:28:39.839Z,11.34
2023-03-30T04:29:39.835Z,11.32
2023-03-30T04:30:39.829Z,11.36
2023-03-30T04:31:39.851Z,11.28
2023-03-30T04:32:39.842Z,11.29
2023-03-30T04:33:39.793Z,11.32
2023-03-30T04:34:39.807Z,11.29
2023-03-30T04:35:39.765Z,11.32
2023-03-30T04:36:39.742Z,11.34
2023-03-30T04:37:40.188Z,11.39
2023-03-30T04:38:39.734Z,11.21
2023-03-30T04:39:39.761Z,11.25
2023-03-30T04:40:39.725Z,11.44
2023-03-30T04:41:39.703Z,11.35
2023-03-30T04:42:39.709Z,11.39
2023-03-30T04:43:39.701Z,11.39
2023-03-30T04:44:39.677Z,11.43
2023-03-30T04:45:39.679Z,11.29
2023-03-30T04:46:39.688Z,11.32
2023-03-30T04:47:39.714Z,11.24
2023-03-30T04:48:39.636Z,11.21
2023-03-30T04:49:39.635Z,11.06
2023-03-30T04:50:39.649Z,11.07
2023-03-30T04:51:39.580Z,11.06
2023-03-30T04:52:39.588Z,10.98
2023-03-30T04:53:39.622Z,10.98
2023-03-30T04:54:39.614Z,10.96
2023-03-30T04:55:39.576Z,10.94
2023-03-30T04:56:39.549Z,10.98
2023-03-30T04:57:39.566Z,10.95
2023-03-30T04:58:39.527Z,10.86
2023-03-30T04:59:39.549Z,10.92
2023-03-30T05:00:39.538Z,10.84
2023-03-30T05:01:39.547Z,10.92
2023-03-30T05:02:39.605Z,10.96
2023-03-30T05:03:39.529Z,10.76
2023-03-30T05:04:39.500Z,10.81
2023-03-30T05:05:39.519Z,10.68
2023-03-30T05:06:39.450Z,10.66
2023-03-30T05:07:39.424Z,10.65
2023-03-30T05:08:41.293Z,10.60
2023-03-30T05:09:40.450Z,10.60
2023-03-30T05:10:39.441Z,10.56
2023-03-30T05:11:39.405Z,10.44
2023-03-30T05:12:39.403Z,10.51
2023-03-30T05:13:39.385Z,10.51
2023-03-30T05:14:39.360Z,10.51
2023-03-30T05:15:39.378Z,10.40
2023-03-30T05:16:39.391Z,10.36
2023-03-30T05:17:39.367Z,10.44
2023-03-30T05:18:39.367Z,10.52
2023-03-30T05:19:39.320Z,10.47
2023-03-30T05:20:39.346Z,10.56
2023-03-30T05:21:39.295Z,10.52
2023-03-30T05:22:39.292Z,10.52
2023-03-30T05:23:39.285Z,10.39
2023-03-30T05:24:39.275Z,10.25
2023-03-30T05:25:39.266Z,10.17
2023-03-30T05:26:39.274Z,9.99
2023-03-30T05:27:39.232Z,9.93
2023-03-30T05:28:39.231Z,10.03
2023-03-30T05:29:39.219Z,10.01
2023-03-30T05:30:39.232Z,9.96
2023-03-30T05:31:39.245Z,10.04
2023-03-30T05:32:39.219Z,10.15
2023-03-30T05:33:39.988Z,10.22
2023-03-30T05:34:39.151Z,10.21
2023-03-30T05:35:39.168Z,10.34
2023-03-30T05:36:40.153Z,10.47
2023-03-30T05:37:39.154Z,10.58
2023-03-30T05:38:39.134Z,10.58
2023-03-30T05:39:39.117Z,10.66
2023-03-30T05:40:39.109Z,10.74
2023-03-30T05:41:39.135Z,10.60
2023-03-30T05:42:39.071Z,10.68
2023-03-30T05:43:39.092Z,10.74
2023-03-30T05:44:39.070Z,10.88
2023-03-30T05:45:39.072Z,11.03
2023-03-30T05:46:39.128Z,11.19
2023-03-30T05:47:39.103Z,11.32
2023-03-30T05:48:39.019Z,11.24
2023-03-30T05:49:39.023Z,11.27
2023-03-30T05:50:39.039Z,11.39
2023-03-30T05:51:39.008Z,11.62
2023-03-30T05:52:38.989Z,11.75
2023-03-30T05:53:38.989Z,11.74
2023-03-30T05:54:38.967Z,11.72
2023-03-30T05:55:38.971Z,11.85
2023-03-30T05:56:38.947Z,11.77
2023-03-30T05:57:38.949Z,11.86
2023-03-30T05:58:38.930Z,11.86
2023-03-30T05:59:38.934Z,11.72
2023-03-30T06:00:38.945Z,11.89
2023-03-30T06:01:38.902Z,11.80
2023-03-30T06:02:38.898Z,11.78
2023-03-30T06:03:39.115Z,11.86
2023-03-30T06:04:38.938Z,11.87
2023-03-30T06:05:38.875Z,11.80
2023-03-30T06:06:38.875Z,11.85
2023-03-30T06:07:38.836Z,11.96
2023-03-30T06:08:38.845Z,11.89
2023-03-30T06:09:38.836Z,11.85
2023-03-30T06:10:38.830Z,11.82
2023-03-30T06:11:38.819Z,11.80
2023-03-30T06:12:38.819Z,11.77
2023-03-30T06:13:38.787Z,11.68
2023-03-30T06:14:38.755Z,11.59
2023-03-30T06:15:38.770Z,11.57
2023-03-30T06:16:38.855Z,11.61
2023-03-30T06:17:38.752Z,11.54
2023-03-30T06:18:38.766Z,11.54
2023-03-30T06:19:38.722Z,11.52
2023-03-30T06:20:38.735Z,11.53
2023-03-30T06:21:38.703Z,11.47
2023-03-30T06:22:38.705Z,11.53
2023-03-30T06:23:38.696Z,11.59
2023-03-30T06:24:38.672Z,11.64
2023-03-30T06:25:38.678Z,11.64
2023-03-30T06:26:38.634Z,11.72
2023-03-30T06:27:38.654Z,11.78
2023-03-30T06:28:38.623Z,11.82
2023-03-30T06:29:38.651Z,11.90
2023-03-30T06:30:38.625Z,11.96
2023-03-30T06:31:38.659Z,11.93
2023-03-30T06:32:38.632Z,11.87
2023-03-30T06:33:40.376Z,11.82
2023-03-30T06:34:38.587Z,11.94
2023-03-30T06:35:38.628Z,11.99
2023-03-30T06:36:44.934Z,11.93
2023-03-30T06:37:39.558Z,12.01
2023-03-30T06:38:38.545Z,12.04
2023-03-30T06:39:38.559Z,12.15
2023-03-30T06:40:38.526Z,12.15
2023-03-30T06:41:38.526Z,12.04
2023-03-30T06:42:38.521Z,12.16
2023-03-30T06:43:38.504Z,12.13
2023-03-30T06:44:38.485Z,12.13
2023-03-30T06:45:38.494Z,12.13
2023-03-30T06:46:38.454Z,12.13
2023-03-30T06:47:38.522Z,12.19
2023-03-30T06:48:38.463Z,12.23
2023-03-30T06:49:38.437Z,12.24
2023-03-30T06:50:38.449Z,12.24
2023-03-30T06:51:38.418Z,12.30
2023-03-30T06:52:38.415Z,12.38
2023-03-30T06:53:38.402Z,12.38
2023-03-30T06:54:38.383Z,12.41
2023-03-30T06:55:38.405Z,12.31
2023-03-30T06:56:38.376Z,12.31
2023-03-30T06:57:38.405Z,12.27
2023-03-30T06:58:38.368Z,12.33
2023-03-30T06:59:38.398Z,12.30
2023-03-30T07:00:38.355Z,12.29
2023-03-30T07:01:38.362Z,12.27
2023-03-30T07:02:38.369Z,12.38
2023-03-30T07:03:38.308Z,12.34
2023-03-30T07:04:38.575Z,12.21
2023-03-30T07:05:38.291Z,12.24
2023-03-30T07:06:38.276Z,12.20
2023-03-30T07:07:38.277Z,12.19
2023-03-30T07:08:38.260Z,12.23
2023-03-30T07:09:38.229Z,12.23
2023-03-30T07:10:38.255Z,12.26
2023-03-30T07:11:38.247Z,12.16
2023-03-30T07:12:38.222Z,12.26
2023-03-30T07:13:38.206Z,12.29
2023-03-30T07:14:38.212Z,12.29
2023-03-30T07:15:38.217Z,12.23
2023-03-30T07:16:38.222Z,12.31
2023-03-30T07:17:38.223Z,12.30
2023-03-30T07:18:38.170Z,12.29
2023-03-30T07:19:38.149Z,12.26
2023-03-30T07:20:38.142Z,12.23
2023-03-30T07:21:38.183Z,12.21
2023-03-30T07:22:38.107Z,12.27
2023-03-30T07:23:38.125Z,12.23
2023-03-30T07:24:38.112Z,12.37
2023-03-30T07:25:38.119Z,12.23
2023-03-30T07:26:38.103Z,12.34
2023-03-30T07:27:38.080Z,12.38
2023-03-30T07:28:38.051Z,12.26
2023-03-30T07:29:38.061Z,12.38
2023-03-30T07:32:00.232Z,12.33
2023-03-30T07:32:01.793Z,12.46
2023-03-30T07:33:01.848Z,12.45
2023-03-30T07:34:01.760Z,12.45
2023-03-30T07:35:01.760Z,12.49
2023-03-30T07:36:01.829Z,12.46
2023-03-30T07:37:01.828Z,12.57
2023-03-30T07:38:03.726Z,12.62
2023-03-30T07:39:02.732Z,12.70
2023-03-30T07:40:01.755Z,12.71
2023-03-30T07:41:01.880Z,12.71
2023-03-30T07:42:02.691Z,12.75
2023-03-30T07:43:01.732Z,12.81
2023-03-30T07:44:01.712Z,12.78
2023-03-30T07:45:01.659Z,12.79
2023-03-30T07:46:01.710Z,12.75
2023-03-30T07:47:01.675Z,12.69
2023-03-30T07:48:01.657Z,12.74
2023-03-30T07:49:01.625Z,12.74
2023-03-30T07:50:01.610Z,12.69
2023-03-30T07:51:01.872Z,12.79
2023-03-30T07:52:01.604Z,12.88
2023-03-30T07:53:01.593Z,12.97
2023-03-30T07:54:01.579Z,12.87
2023-03-30T07:55:01.583Z,12.92
2023-03-30T07:56:01.573Z,12.89
2023-03-30T07:57:01.624Z,12.92
2023-03-30T07:58:01.569Z,12.95
2023-03-30T07:59:01.936Z,13.02
2023-03-30T08:00:02.555Z,12.96
2023-03-30T08:01:01.755Z,12.89
2023-03-30T08:02:01.508Z,12.92
2023-03-30T08:03:01.648Z,12.87
2023-03-30T08:04:01.543Z,12.92
2023-03-30T08:05:01.649Z,13.06
2023-03-30T08:06:01.472Z,13.00
2023-03-30T08:07:01.476Z,12.89
2023-03-30T08:08:01.449Z,12.96
2023-03-30T08:09:01.432Z,12.93
2023-03-30T08:10:01.435Z,12.95
2023-03-30T08:11:01.492Z,12.82
2023-03-30T08:12:01.420Z,12.78
2023-03-30T08:13:01.388Z,12.71
2023-03-30T08:14:01.399Z,12.79
2023-03-30T08:15:01.359Z,12.84
2023-03-30T08:16:01.435Z,12.67
2023-03-30T08:17:01.391Z,12.79
2023-03-30T08:18:01.380Z,12.78
2023-03-30T08:19:01.331Z,12.92
2023-03-30T08:20:01.368Z,12.92
2023-03-30T08:21:01.469Z,13.03
2023-03-30T08:22:01.318Z,13.11
2023-03-30T08:23:01.333Z,13.07
2023-03-30T08:24:01.311Z,13.33
2023-03-30T08:25:01.295Z,13.43
2023-03-30T08:26:01.277Z,13.51
2023-03-30T08:27:01.295Z,13.55
2023-03-30T08:28:01.260Z,13.62
2023-03-30T08:29:01.241Z,13.80
2023-03-30T08:30:01.230Z,13.94
2023-03-30T08:31:01.243Z,14.02
2023-03-30T08:32:01.284Z,14.13
2023-03-30T08:34:01.198Z,14.53
2023-03-30T08:35:01.163Z,14.68
2023-03-30T08:36:01.250Z,14.98
2023-03-30T08:37:01.182Z,15.08
2023-03-30T08:38:01.182Z,15.09
2023-03-30T08:39:02.173Z,15.21
2023-03-30T08:40:01.141Z,15.49
2023-03-30T08:41:01.182Z,15.76
2023-03-30T08:42:01.175Z,15.94
2023-03-30T08:43:01.074Z,16.04
2023-03-30T08:44:01.083Z,15.88
2023-03-30T08:45:01.065Z,15.48
2023-03-30T08:46:01.074Z,15.61
2023-03-30T08:47:01.045Z,15.57
2023-03-30T08:48:01.066Z,15.36
2023-03-30T08:49:01.037Z,15.27
2023-03-30T08:50:01.008Z,15.36
2023-03-30T08:51:01.025Z,15.43
2023-03-30T08:52:03.051Z,15.33
2023-03-30T08:53:02.001Z,15.48
2023-03-30T08:54:00.963Z,15.57
2023-03-30T08:55:00.955Z,15.68
2023-03-30T08:56:00.937Z,15.85
2023-03-30T08:57:00.968Z,15.48
2023-03-30T08:58:00.923Z,15.51
2023-03-30T08:59:00.912Z,15.41
2023-03-30T09:00:00.923Z,15.24
2023-03-30T09:01:00.917Z,15.31
2023-03-30T09:02:00.953Z,15.27
2023-03-30T09:03:00.893Z,15.15
2023-03-30T09:04:00.855Z,15.17
2023-03-30T09:05:00.888Z,15.35
2023-03-30T09:06:00.827Z,15.33
2023-03-30T09:07:00.835Z,15.12
2023-03-30T09:08:00.806Z,15.13
2023-03-30T09:09:00.810Z,15.21
2023-03-30T09:10:00.798Z,15.17
2023-03-30T09:11:00.809Z,15.27
2023-03-30T09:12:00.791Z,15.31
2023-03-30T09:13:00.754Z,15.36
2023-03-30T09:14:00.752Z,15.49
2023-03-30T09:15:00.748Z,15.57
2023-03-30T09:16:00.739Z,15.61
2023-03-30T09:17:00.847Z,15.61
2023-03-30T09:18:00.743Z,15.66
2023-03-30T09:19:00.714Z,15.84
2023-03-30T09:20:00.697Z,15.86
2023-03-30T09:21:00.684Z,15.72
2023-03-30T09:22:00.681Z,15.75
2023-03-30T09:23:00.673Z,15.61
2023-03-30T09:24:00.683Z,15.63
2023-03-30T09:25:00.655Z,15.66
2023-03-30T09:26:01.403Z,15.70
2023-03-30T09:27:01.638Z,15.79
2023-03-30T09:28:00.617Z,15.74
2023-03-30T09:29:00.609Z,15.74
2023-03-30T09:30:00.597Z,15.72
2023-03-30T09:31:00.588Z,15.84
2023-03-30T09:32:00.657Z,15.96
2023-03-30T09:33:00.587Z,16.12
2023-03-30T09:34:00.550Z,16.25
2023-03-30T09:35:00.538Z,16.63
2023-03-30T09:36:00.597Z,16.67
2023-03-30T09:37:00.537Z,16.83
2023-03-30T09:38:00.516Z,17.30
2023-03-30T09:39:00.536Z,17.64
2023-03-30T09:40:00.497Z,17.38
2023-03-30T09:41:00.501Z,17.10
2023-03-30T09:42:00.496Z,17.18
2023-03-30T09:43:00.467Z,17.14
2023-03-30T09:44:00.462Z,17.08
2023-03-30T09:45:00.458Z,17.13
2023-03-30T09:46:00.478Z,17.11
2023-03-30T09:47:00.457Z,17.33
2023-03-30T09:48:00.464Z,17.15
2023-03-30T09:49:00.409Z,17.32
2023-03-30T09:50:00.408Z,17.38
2023-03-30T09:51:00.385Z,17.08
2023-03-30T09:52:00.378Z,16.88
2023-03-30T09:53:00.384Z,16.55
2023-03-30T09:54:00.369Z,16.37
2023-03-30T09:55:00.342Z,16.30
2023-03-30T09:56:00.384Z,16.33
2023-03-30T09:57:00.356Z,16.35
2023-03-30T09:58:00.323Z,16.59
2023-03-30T09:59:00.301Z,16.92
2023-03-30T10:00:00.302Z,17.11
2023-03-30T10:01:00.368Z,17.23
2023-03-30T10:02:00.433Z,17.33
2023-03-30T10:03:00.331Z,17.44
2023-03-30T10:04:00.408Z,17.57
2023-03-30T10:05:00.372Z,17.29
2023-03-30T10:06:00.238Z,17.11
2023-03-30T10:07:06.976Z,17.22
2023-03-30T10:08:02.214Z,16.98
2023-03-30T10:09:00.198Z,16.73
2023-03-30T10:10:00.813Z,16.48
2023-03-30T10:11:00.193Z,16.50
2023-03-30T10:12:02.873Z,16.40
2023-03-30T10:13:00.210Z,16.44
2023-03-30T10:14:00.203Z,16.42
2023-03-30T10:15:00.179Z,16.60
2023-03-30T10:16:00.222Z,16.50
2023-03-30T10:17:00.193Z,16.53
2023-03-30T10:18:00.184Z,16.52
2023-03-30T10:19:00.157Z,16.38
2023-03-30T10:20:11.028Z,16.31
2023-03-30T10:21:02.108Z,16.23
2023-03-30T10:22:00.152Z,16.44
2023-03-30T10:23:00.130Z,16.31
2023-03-30T10:24:00.131Z,16.42
2023-03-30T10:25:00.122Z,16.53
2023-03-30T10:26:00.050Z,16.63
2023-03-30T10:27:00.051Z,16.67
2023-03-30T10:28:00.043Z,16.62
2023-03-30T10:29:01.057Z,16.63
2023-03-30T10:30:00.043Z,16.73
2023-03-30T10:31:00.024Z,16.88
2023-03-30T10:32:00.067Z,16.92
2023-03-30T10:33:00.121Z,16.81
2023-03-30T10:33:59.999Z,16.93
2023-03-30T10:34:59.987Z,16.99
2023-03-30T10:35:59.999Z,16.98
2023-03-30T10:36:59.914Z,16.95
2023-03-30T10:37:59.933Z,16.77
2023-03-30T10:38:59.923Z,16.68
2023-03-30T10:39:59.911Z,16.70
2023-03-30T10:40:59.886Z,16.74
2023-03-30T10:42:00.214Z,16.67
2023-03-30T10:43:00.862Z,16.58
2023-03-30T10:43:59.847Z,16.63
2023-03-30T10:44:59.824Z,16.59
2023-03-30T10:46:08.956Z,16.74
2023-03-30T10:47:01.848Z,16.68
2023-03-30T10:48:00.427Z,16.80
2023-03-30T10:48:59.792Z,16.77
2023-03-30T10:49:59.792Z,16.65
2023-03-30T10:50:59.781Z,16.63
2023-03-30T10:51:59.757Z,16.58
2023-03-30T10:52:59.931Z,16.40
2023-03-30T10:53:59.920Z,16.38
2023-03-30T10:55:00.735Z,16.42
2023-03-30T10:55:59.717Z,16.37
2023-03-30T10:56:59.738Z,16.41
2023-03-30T10:57:59.717Z,16.53
2023-03-30T10:58:59.687Z,16.53
2023-03-30T11:00:00.337Z,16.56
2023-03-30T11:01:00.765Z,16.50
2023-03-30T11:01:59.656Z,16.59
2023-03-30T11:02:59.687Z,16.75
2023-03-30T11:04:06.605Z,16.74
2023-03-30T11:05:01.642Z,16.67
2023-03-30T11:05:59.618Z,16.71
2023-03-30T11:06:59.652Z,16.60
2023-03-30T11:07:59.637Z,16.65
2023-03-30T11:08:59.620Z,16.75
2023-03-30T11:09:59.600Z,16.74
2023-03-30T11:10:59.583Z,17.00
2023-03-30T11:11:59.578Z,17.54
2023-03-30T11:12:59.548Z,17.84
2023-03-30T11:13:59.551Z,17.92
2023-03-30T11:14:59.528Z,18.04
2023-03-30T11:15:59.530Z,18.34
2023-03-30T11:16:59.552Z,18.47
2023-03-30T11:17:59.521Z,18.65
2023-03-30T11:18:59.520Z,18.58
2023-03-30T11:19:59.513Z,18.31
2023-03-30T11:20:59.467Z,18.22
2023-03-30T11:21:59.454Z,18.28
2023-03-30T11:22:59.449Z,18.65
2023-03-30T11:23:59.438Z,18.70
2023-03-30T11:24:59.459Z,18.55
2023-03-30T11:25:59.412Z,18.39
2023-03-30T11:26:59.398Z,18.50
2023-03-30T11:27:59.396Z,18.83
2023-03-30T11:28:59.386Z,18.77
2023-03-30T11:29:59.368Z,18.77
2023-03-30T11:30:59.358Z,19.08
2023-03-30T11:31:59.384Z,18.83
2023-03-30T11:32:59.382Z,18.92
2023-03-30T11:33:59.350Z,19.18
2023-03-30T11:34:59.329Z,19.58
2023-03-30T11:35:59.351Z,19.91
2023-03-30T11:36:59.302Z,19.73
2023-03-30T11:37:59.289Z,19.31
2023-03-30T11:38:59.290Z,18.82
2023-03-30T11:39:59.271Z,18.70
2023-03-30T11:40:59.253Z,18.47
2023-03-30T11:41:59.268Z,18.36
2023-03-30T11:49:08.675Z,18.76
2023-03-30T11:49:46.223Z,18.67
2023-03-30T11:50:46.168Z,18.57
2023-03-30T11:51:46.033Z,18.59
2023-03-30T11:54:35.546Z,18.39
2023-03-30T11:55:13.553Z,18.31
2023-03-30T11:56:13.054Z,18.13
2023-03-30T11:57:41.369Z,18.27
2023-03-30T11:58:12.955Z,18.25
2023-03-30T11:59:12.992Z,18.17
2023-03-30T12:00:12.959Z,18.00
2023-03-30T12:01:17.575Z,17.67
2023-03-30T12:02:13.721Z,17.73
2023-03-30T12:03:13.018Z,17.59
2023-03-30T12:04:13.114Z,16.81
2023-03-30T12:05:12.880Z,15.57
2023-03-30T12:06:12.868Z,14.72
2023-03-30T12:07:12.863Z,13.94
2023-03-30T12:08:12.866Z,13.55
2023-03-30T12:09:12.851Z,13.37
2023-03-30T12:10:12.841Z,13.06
2023-03-30T12:11:12.824Z,13.07
2023-03-30T12:12:12.808Z,12.89
2023-03-30T12:13:12.798Z,12.75
2023-03-30T12:14:12.803Z,12.66
2023-03-30T12:15:13.915Z,12.75
2023-03-30T12:16:14.005Z,12.63
2023-03-30T12:17:13.924Z,12.66
2023-03-30T12:18:13.892Z,12.69
2023-03-30T12:19:13.906Z,12.63
2023-03-30T12:20:14.021Z,12.60
2023-03-30T12:21:14.880Z,12.51
2023-03-30T12:22:13.823Z,12.51
2023-03-30T12:23:13.825Z,12.46
2023-03-30T12:24:13.825Z,12.46
2023-03-30T12:25:13.798Z,12.48
2023-03-30T12:26:13.782Z,12.49
2023-03-30T12:27:13.784Z,12.51
2023-03-30T12:28:13.775Z,12.62
2023-03-30T12:29:56.537Z,12.59
2023-03-30T12:30:15.742Z,12.49
2023-03-30T12:31:14.764Z,12.44
2023-03-30T12:32:13.723Z,12.45
2023-03-30T12:33:13.742Z,12.44
2023-03-30T12:34:13.726Z,12.31
2023-03-30T12:35:13.714Z,12.19
2023-03-30T12:36:13.694Z,12.19
2023-03-30T12:37:13.700Z,12.13
2023-03-30T12:38:13.675Z,12.05
2023-03-30T12:39:13.682Z,12.13
2023-03-30T12:40:13.682Z,12.09
2023-03-30T12:41:13.647Z,12.13
2023-03-30T12:42:13.650Z,12.16
2023-03-30T12:43:13.631Z,12.19
2023-03-30T12:44:13.616Z,12.06
2023-03-30T12:45:13.619Z,12.21
2023-03-30T12:46:13.604Z,12.29
2023-03-30T12:47:13.579Z,12.21
2023-03-30T12:48:13.608Z,12.30
2023-03-30T12:49:13.588Z,12.30
2023-03-30T12:50:13.577Z,12.19
2023-03-30T12:51:13.555Z,12.24
2023-03-30T12:52:13.538Z,12.11
2023-03-30T12:53:13.534Z,12.21
2023-03-30T12:54:13.517Z,12.19
2023-03-30T12:55:13.519Z,12.24
2023-03-30T12:56:13.484Z,12.30
2023-03-30T12:57:14.508Z,12.38
2023-03-30T12:58:13.487Z,12.59
2023-03-30T12:59:13.461Z,12.52
2023-03-30T13:00:13.473Z,12.57
2023-03-30T13:01:13.486Z,12.77
2023-03-30T13:02:13.428Z,12.70
2023-03-30T13:03:14.195Z,12.56
2023-03-30T13:04:13.432Z,12.60
2023-03-30T13:05:13.409Z,12.66
2023-03-30T13:06:13.385Z,12.89
2023-03-30T13:07:13.389Z,13.15
2023-03-30T13:08:13.365Z,13.55
2023-03-30T13:09:13.353Z,13.77